sensor_id;sensor_type;location;lat;lon;timestamp;temperature;humidity
85378;DHT22;75782;48.632;10.230;2024-01-27T00:01:07;3.20;68.50
85378;DHT22;75782;48.632;10.230;2024-01-27T00:03:35;3.20;68.40
85378;DHT22;75782;48.632;10.230;2024-01-27T00:06:01;3.20;68.40
85378;DHT22;75782;48.632;10.230;2024-01-27T00:08:29;3.10;68.60
85378;DHT22;75782;48.632;10.230;2024-01-27T00:10:55;3.10;68.50
85378;DHT22;75782;48.632;10.230;2024-01-27T00:13:22;3.10;68.50
85378;DHT22;75782;48.632;10.230;2024-01-27T00:15:49;3.00;68.50
85378;DHT22;75782;48.632;10.230;2024-01-27T00:18:16;3.00;68.50
85378;DHT22;75782;48.632;10.230;2024-01-27T00:20:42;3.00;68.70
85378;DHT22;75782;48.632;10.230;2024-01-27T00:23:09;3.00;68.80
85378;DHT22;75782;48.632;10.230;2024-01-27T00:25:36;3.00;68.80
85378;DHT22;75782;48.632;10.230;2024-01-27T00:28:02;3.00;68.70
85378;DHT22;75782;48.632;10.230;2024-01-27T00:30:29;3.00;68.70
85378;DHT22;75782;48.632;10.230;2024-01-27T00:32:55;2.90;68.50
85378;DHT22;75782;48.632;10.230;2024-01-27T00:35:22;2.90;68.40
85378;DHT22;75782;48.632;10.230;2024-01-27T00:37:49;2.90;68.40
85378;DHT22;75782;48.632;10.230;2024-01-27T00:40:15;2.90;68.40
85378;DHT22;75782;48.632;10.230;2024-01-27T00:42:42;2.90;68.40
85378;DHT22;75782;48.632;10.230;2024-01-27T00:45:09;2.80;68.60
85378;DHT22;75782;48.632;10.230;2024-01-27T00:47:36;2.80;68.60
85378;DHT22;75782;48.632;10.230;2024-01-27T00:50:03;2.80;68.60
85378;DHT22;75782;48.632;10.230;2024-01-27T00:52:29;2.80;68.60
85378;DHT22;75782;48.632;10.230;2024-01-27T00:54:56;2.80;68.70
85378;DHT22;75782;48.632;10.230;2024-01-27T00:57:22;2.80;68.80
85378;DHT22;75782;48.632;10.230;2024-01-27T00:59:49;2.80;69.00
85378;DHT22;75782;48.632;10.230;2024-01-27T01:02:16;2.80;69.10
85378;DHT22;75782;48.632;10.230;2024-01-27T01:04:42;2.80;69.20
85378;DHT22;75782;48.632;10.230;2024-01-27T01:07:09;2.80;69.20
85378;DHT22;75782;48.632;10.230;2024-01-27T01:09:35;2.70;69.20
85378;DHT22;75782;48.632;10.230;2024-01-27T01:12:02;2.70;69.30
85378;DHT22;75782;48.632;10.230;2024-01-27T01:14:29;2.70;69.40
85378;DHT22;75782;48.632;10.230;2024-01-27T01:16:55;2.70;69.40
85378;DHT22;75782;48.632;10.230;2024-01-27T01:19:22;2.70;69.40
85378;DHT22;75782;48.632;10.230;2024-01-27T01:21:49;2.70;69.40
85378;DHT22;75782;48.632;10.230;2024-01-27T01:24:16;2.70;69.30
85378;DHT22;75782;48.632;10.230;2024-01-27T01:26:43;2.70;69.20
85378;DHT22;75782;48.632;10.230;2024-01-27T01:29:11;2.70;69.10
85378;DHT22;75782;48.632;10.230;2024-01-27T01:31:40;2.60;68.80
85378;DHT22;75782;48.632;10.230;2024-01-27T01:34:05;2.60;68.80
85378;DHT22;75782;48.632;10.230;2024-01-27T01:36:32;2.60;68.80
85378;DHT22;75782;48.632;10.230;2024-01-27T01:38:59;2.60;68.90
85378;DHT22;75782;48.632;10.230;2024-01-27T01:41:25;2.60;68.80
85378;DHT22;75782;48.632;10.230;2024-01-27T01:43:52;2.60;68.90
85378;DHT22;75782;48.632;10.230;2024-01-27T01:46:18;2.60;69.00
85378;DHT22;75782;48.632;10.230;2024-01-27T01:48:45;2.60;69.00
85378;DHT22;75782;48.632;10.230;2024-01-27T01:51:12;2.60;68.90
85378;DHT22;75782;48.632;10.230;2024-01-27T01:53:38;2.50;68.80
85378;DHT22;75782;48.632;10.230;2024-01-27T01:56:06;2.50;68.90
85378;DHT22;75782;48.632;10.230;2024-01-27T01:58:32;2.50;68.90
85378;DHT22;75782;48.632;10.230;2024-01-27T02:01:00;2.50;68.90
85378;DHT22;75782;48.632;10.230;2024-01-27T02:03:27;2.50;68.80
85378;DHT22;75782;48.632;10.230;2024-01-27T02:05:55;2.50;68.70
85378;DHT22;75782;48.632;10.230;2024-01-27T02:08:21;2.40;68.60
85378;DHT22;75782;48.632;10.230;2024-01-27T02:10:47;2.50;68.70
85378;DHT22;75782;48.632;10.230;2024-01-27T02:13:16;2.40;68.70
85378;DHT22;75782;48.632;10.230;2024-01-27T02:15:44;2.40;68.80
85378;DHT22;75782;48.632;10.230;2024-01-27T02:18:11;2.40;68.90
85378;DHT22;75782;48.632;10.230;2024-01-27T02:20:38;2.40;68.90
85378;DHT22;75782;48.632;10.230;2024-01-27T02:23:04;2.40;68.70
85378;DHT22;75782;48.632;10.230;2024-01-27T02:25:31;2.30;68.60
85378;DHT22;75782;48.632;10.230;2024-01-27T02:27:57;2.30;68.60
85378;DHT22;75782;48.632;10.230;2024-01-27T02:30:24;2.30;68.80
85378;DHT22;75782;48.632;10.230;2024-01-27T02:32:51;2.30;68.80
85378;DHT22;75782;48.632;10.230;2024-01-27T02:35:18;2.30;68.70
85378;DHT22;75782;48.632;10.230;2024-01-27T02:37:45;2.30;68.70
85378;DHT22;75782;48.632;10.230;2024-01-27T02:40:12;2.30;68.70
85378;DHT22;75782;48.632;10.230;2024-01-27T02:42:39;2.20;68.50
85378;DHT22;75782;48.632;10.230;2024-01-27T02:45:09;2.20;68.50
85378;DHT22;75782;48.632;10.230;2024-01-27T02:47:36;2.20;68.60
85378;DHT22;75782;48.632;10.230;2024-01-27T02:50:02;2.20;68.70
85378;DHT22;75782;48.632;10.230;2024-01-27T02:52:30;2.20;68.10
85378;DHT22;75782;48.632;10.230;2024-01-27T02:54:57;2.20;68.20
85378;DHT22;75782;48.632;10.230;2024-01-27T02:57:25;2.10;67.90
85378;DHT22;75782;48.632;10.230;2024-01-27T02:59:51;2.10;67.90
85378;DHT22;75782;48.632;10.230;2024-01-27T03:02:18;2.10;67.90
85378;DHT22;75782;48.632;10.230;2024-01-27T03:04:44;2.10;67.90
85378;DHT22;75782;48.632;10.230;2024-01-27T03:07:11;2.00;67.90
85378;DHT22;75782;48.632;10.230;2024-01-27T03:09:38;2.00;68.10
85378;DHT22;75782;48.632;10.230;2024-01-27T03:12:04;2.00;68.20
85378;DHT22;75782;48.632;10.230;2024-01-27T03:14:31;2.00;68.10
85378;DHT22;75782;48.632;10.230;2024-01-27T03:16:58;2.00;68.10
85378;DHT22;75782;48.632;10.230;2024-01-27T03:19:24;1.90;68.10
85378;DHT22;75782;48.632;10.230;2024-01-27T03:21:51;1.90;68.10
85378;DHT22;75782;48.632;10.230;2024-01-27T03:24:17;1.90;68.20
85378;DHT22;75782;48.632;10.230;2024-01-27T03:26:44;1.90;68.10
85378;DHT22;75782;48.632;10.230;2024-01-27T03:29:11;1.80;68.30
85378;DHT22;75782;48.632;10.230;2024-01-27T03:31:38;1.80;68.50
85378;DHT22;75782;48.632;10.230;2024-01-27T03:34:05;1.80;68.70
85378;DHT22;75782;48.632;10.230;2024-01-27T03:36:31;1.80;68.70
85378;DHT22;75782;48.632;10.230;2024-01-27T03:38:58;1.80;68.50
85378;DHT22;75782;48.632;10.230;2024-01-27T03:41:24;1.80;68.20
85378;DHT22;75782;48.632;10.230;2024-01-27T03:43:52;1.80;68.40
85378;DHT22;75782;48.632;10.230;2024-01-27T03:46:19;1.80;68.30
85378;DHT22;75782;48.632;10.230;2024-01-27T03:48:46;1.70;68.20
85378;DHT22;75782;48.632;10.230;2024-01-27T03:51:12;1.70;68.30
85378;DHT22;75782;48.632;10.230;2024-01-27T03:53:39;1.80;68.30
85378;DHT22;75782;48.632;10.230;2024-01-27T03:56:06;1.80;68.40
85378;DHT22;75782;48.632;10.230;2024-01-27T03:58:32;1.70;68.50
85378;DHT22;75782;48.632;10.230;2024-01-27T04:00:59;1.80;68.80
85378;DHT22;75782;48.632;10.230;2024-01-27T04:03:26;1.80;68.80
85378;DHT22;75782;48.632;10.230;2024-01-27T04:05:52;1.80;68.80
85378;DHT22;75782;48.632;10.230;2024-01-27T04:08:19;1.80;68.70
85378;DHT22;75782;48.632;10.230;2024-01-27T04:10:45;1.80;68.50
85378;DHT22;75782;48.632;10.230;2024-01-27T04:13:12;1.80;68.40
85378;DHT22;75782;48.632;10.230;2024-01-27T04:15:39;1.80;68.50
85378;DHT22;75782;48.632;10.230;2024-01-27T04:18:05;1.80;68.60
85378;DHT22;75782;48.632;10.230;2024-01-27T04:20:33;1.70;67.90
85378;DHT22;75782;48.632;10.230;2024-01-27T04:22:59;1.70;67.90
85378;DHT22;75782;48.632;10.230;2024-01-27T04:25:26;1.70;67.60
85378;DHT22;75782;48.632;10.230;2024-01-27T04:27:52;1.70;67.80
85378;DHT22;75782;48.632;10.230;2024-01-27T04:30:20;1.60;67.60
85378;DHT22;75782;48.632;10.230;2024-01-27T04:32:46;1.60;67.60
85378;DHT22;75782;48.632;10.230;2024-01-27T04:35:13;1.60;67.70
85378;DHT22;75782;48.632;10.230;2024-01-27T04:37:40;1.60;67.90
85378;DHT22;75782;48.632;10.230;2024-01-27T04:40:07;1.60;68.80
85378;DHT22;75782;48.632;10.230;2024-01-27T04:42:34;1.60;68.80
85378;DHT22;75782;48.632;10.230;2024-01-27T04:45:01;1.70;69.30
85378;DHT22;75782;48.632;10.230;2024-01-27T04:47:28;1.70;69.30
85378;DHT22;75782;48.632;10.230;2024-01-27T04:49:55;1.70;68.90
85378;DHT22;75782;48.632;10.230;2024-01-27T04:52:22;1.70;68.90
85378;DHT22;75782;48.632;10.230;2024-01-27T04:54:48;1.60;68.60
85378;DHT22;75782;48.632;10.230;2024-01-27T04:57:16;1.60;68.50
85378;DHT22;75782;48.632;10.230;2024-01-27T04:59:42;1.60;68.40
85378;DHT22;75782;48.632;10.230;2024-01-27T05:02:08;1.60;68.50
85378;DHT22;75782;48.632;10.230;2024-01-27T05:04:36;1.60;68.40
85378;DHT22;75782;48.632;10.230;2024-01-27T05:07:01;1.60;68.10
85378;DHT22;75782;48.632;10.230;2024-01-27T05:09:28;1.60;68.10
85378;DHT22;75782;48.632;10.230;2024-01-27T05:11:55;1.50;68.10
85378;DHT22;75782;48.632;10.230;2024-01-27T05:14:21;1.50;68.20
85378;DHT22;75782;48.632;10.230;2024-01-27T05:16:48;1.50;68.30
85378;DHT22;75782;48.632;10.230;2024-01-27T05:19:14;1.50;68.30
85378;DHT22;75782;48.632;10.230;2024-01-27T05:21:41;1.60;68.50
85378;DHT22;75782;48.632;10.230;2024-01-27T05:24:08;1.60;68.50
85378;DHT22;75782;48.632;10.230;2024-01-27T05:26:34;1.50;68.60
85378;DHT22;75782;48.632;10.230;2024-01-27T05:29:01;1.50;68.50
85378;DHT22;75782;48.632;10.230;2024-01-27T05:31:27;1.50;68.20
85378;DHT22;75782;48.632;10.230;2024-01-27T05:33:54;1.50;67.90
85378;DHT22;75782;48.632;10.230;2024-01-27T05:36:21;1.50;67.50
85378;DHT22;75782;48.632;10.230;2024-01-27T05:38:47;1.40;67.30
85378;DHT22;75782;48.632;10.230;2024-01-27T05:41:14;1.40;67.40
85378;DHT22;75782;48.632;10.230;2024-01-27T05:43:41;1.40;66.60
85378;DHT22;75782;48.632;10.230;2024-01-27T05:46:09;1.30;67.00
85378;DHT22;75782;48.632;10.230;2024-01-27T05:48:35;1.30;67.30
85378;DHT22;75782;48.632;10.230;2024-01-27T05:51:02;1.30;67.40
85378;DHT22;75782;48.632;10.230;2024-01-27T05:53:28;1.30;67.50
85378;DHT22;75782;48.632;10.230;2024-01-27T05:55:55;1.30;67.60
85378;DHT22;75782;48.632;10.230;2024-01-27T05:58:22;1.30;67.50
85378;DHT22;75782;48.632;10.230;2024-01-27T06:00:48;1.20;67.50
85378;DHT22;75782;48.632;10.230;2024-01-27T06:03:15;1.20;67.50
85378;DHT22;75782;48.632;10.230;2024-01-27T06:05:41;1.20;67.70
85378;DHT22;75782;48.632;10.230;2024-01-27T06:08:08;1.20;67.60
85378;DHT22;75782;48.632;10.230;2024-01-27T06:10:35;1.20;67.70
85378;DHT22;75782;48.632;10.230;2024-01-27T06:13:03;1.20;67.90
85378;DHT22;75782;48.632;10.230;2024-01-27T06:15:29;1.20;68.10
85378;DHT22;75782;48.632;10.230;2024-01-27T06:17:56;1.20;68.20
85378;DHT22;75782;48.632;10.230;2024-01-27T06:20:22;1.20;68.20
85378;DHT22;75782;48.632;10.230;2024-01-27T06:22:50;1.20;68.20
85378;DHT22;75782;48.632;10.230;2024-01-27T06:25:16;1.20;68.00
85378;DHT22;75782;48.632;10.230;2024-01-27T06:27:43;1.20;67.90
85378;DHT22;75782;48.632;10.230;2024-01-27T06:30:10;1.20;68.10
85378;DHT22;75782;48.632;10.230;2024-01-27T06:32:36;1.20;68.20
85378;DHT22;75782;48.632;10.230;2024-01-27T06:35:03;1.20;68.10
85378;DHT22;75782;48.632;10.230;2024-01-27T06:37:30;1.10;68.00
85378;DHT22;75782;48.632;10.230;2024-01-27T06:39:57;1.10;67.70
85378;DHT22;75782;48.632;10.230;2024-01-27T06:42:24;1.10;67.50
85378;DHT22;75782;48.632;10.230;2024-01-27T06:44:51;1.00;67.40
85378;DHT22;75782;48.632;10.230;2024-01-27T06:47:18;1.00;67.40
85378;DHT22;75782;48.632;10.230;2024-01-27T06:49:44;1.00;67.40
85378;DHT22;75782;48.632;10.230;2024-01-27T06:52:11;1.00;67.40
85378;DHT22;75782;48.632;10.230;2024-01-27T06:54:37;1.00;67.30
85378;DHT22;75782;48.632;10.230;2024-01-27T06:57:04;1.00;67.40
85378;DHT22;75782;48.632;10.230;2024-01-27T06:59:31;0.90;67.00
85378;DHT22;75782;48.632;10.230;2024-01-27T07:01:57;1.00;66.80
85378;DHT22;75782;48.632;10.230;2024-01-27T07:04:25;0.90;66.60
85378;DHT22;75782;48.632;10.230;2024-01-27T07:06:51;0.90;66.60
85378;DHT22;75782;48.632;10.230;2024-01-27T07:09:18;0.90;66.50
85378;DHT22;75782;48.632;10.230;2024-01-27T07:11:44;0.90;66.80
85378;DHT22;75782;48.632;10.230;2024-01-27T07:14:11;1.10;67.70
85378;DHT22;75782;48.632;10.230;2024-01-27T07:16:38;1.40;67.30
85378;DHT22;75782;48.632;10.230;2024-01-27T07:19:04;1.80;66.80
85378;DHT22;75782;48.632;10.230;2024-01-27T07:21:31;2.20;65.50
85378;DHT22;75782;48.632;10.230;2024-01-27T07:23:57;2.70;64.10
85378;DHT22;75782;48.632;10.230;2024-01-27T07:26:24;3.20;62.40
85378;DHT22;75782;48.632;10.230;2024-01-27T07:28:51;3.60;61.50
85378;DHT22;75782;48.632;10.230;2024-01-27T07:31:17;4.10;60.60
85378;DHT22;75782;48.632;10.230;2024-01-27T07:33:45;5.00;58.70
85378;DHT22;75782;48.632;10.230;2024-01-27T07:36:11;5.00;58.70
85378;DHT22;75782;48.632;10.230;2024-01-27T07:38:38;6.00;56.20
85378;DHT22;75782;48.632;10.230;2024-01-27T07:41:05;6.00;56.20
85378;DHT22;75782;48.632;10.230;2024-01-27T07:43:32;6.50;55.60
85378;DHT22;75782;48.632;10.230;2024-01-27T07:45:58;7.00;54.20
85378;DHT22;75782;48.632;10.230;2024-01-27T07:48:25;7.60;53.00
85378;DHT22;75782;48.632;10.230;2024-01-27T07:50:51;8.30;51.90
85378;DHT22;75782;48.632;10.230;2024-01-27T07:53:18;9.00;50.90
85378;DHT22;75782;48.632;10.230;2024-01-27T07:55:45;9.70;48.60
85378;DHT22;75782;48.632;10.230;2024-01-27T07:58:11;10.30;45.90
85378;DHT22;75782;48.632;10.230;2024-01-27T08:00:38;11.00;45.00
85378;DHT22;75782;48.632;10.230;2024-01-27T08:03:04;11.50;43.60
85378;DHT22;75782;48.632;10.230;2024-01-27T08:05:31;11.90;42.50
85378;DHT22;75782;48.632;10.230;2024-01-27T08:07:58;12.30;41.70
85378;DHT22;75782;48.632;10.230;2024-01-27T08:10:25;12.50;40.80
85378;DHT22;75782;48.632;10.230;2024-01-27T08:12:52;12.10;41.30
85378;DHT22;75782;48.632;10.230;2024-01-27T08:15:20;11.50;42.00
85378;DHT22;75782;48.632;10.230;2024-01-27T08:17:46;11.50;42.00
85378;DHT22;75782;48.632;10.230;2024-01-27T08:20:13;11.00;42.80
85378;DHT22;75782;48.632;10.230;2024-01-27T08:22:40;10.50;44.10
85378;DHT22;75782;48.632;10.230;2024-01-27T08:25:07;10.10;44.30
85378;DHT22;75782;48.632;10.230;2024-01-27T08:27:33;9.70;46.30
85378;DHT22;75782;48.632;10.230;2024-01-27T08:30:01;8.90;48.90
85378;DHT22;75782;48.632;10.230;2024-01-27T08:32:28;8.60;49.90
85378;DHT22;75782;48.632;10.230;2024-01-27T08:34:55;8.40;51.00
85378;DHT22;75782;48.632;10.230;2024-01-27T08:37:23;8.30;51.00
85378;DHT22;75782;48.632;10.230;2024-01-27T08:39:50;8.30;51.90
85378;DHT22;75782;48.632;10.230;2024-01-27T08:42:17;8.30;51.90
85378;DHT22;75782;48.632;10.230;2024-01-27T08:44:43;8.50;52.10
85378;DHT22;75782;48.632;10.230;2024-01-27T08:47:10;9.30;51.70
85378;DHT22;75782;48.632;10.230;2024-01-27T08:49:36;10.30;49.00
85378;DHT22;75782;48.632;10.230;2024-01-27T08:52:03;11.30;46.70
85378;DHT22;75782;48.632;10.230;2024-01-27T08:54:30;12.20;44.80
85378;DHT22;75782;48.632;10.230;2024-01-27T08:56:56;13.20;42.40
85378;DHT22;75782;48.632;10.230;2024-01-27T08:59:24;15.20;39.00
85378;DHT22;75782;48.632;10.230;2024-01-27T09:01:50;15.20;38.40
85378;DHT22;75782;48.632;10.230;2024-01-27T09:04:17;16.00;36.30
85378;DHT22;75782;48.632;10.230;2024-01-27T09:06:44;16.70;35.70
85378;DHT22;75782;48.632;10.230;2024-01-27T09:09:11;17.60;33.30
85378;DHT22;75782;48.632;10.230;2024-01-27T09:11:38;17.60;33.20
85378;DHT22;75782;48.632;10.230;2024-01-27T09:14:04;18.00;32.10
85378;DHT22;75782;48.632;10.230;2024-01-27T09:16:31;18.40;32.30
85378;DHT22;75782;48.632;10.230;2024-01-27T09:18:58;18.70;31.20
85378;DHT22;75782;48.632;10.230;2024-01-27T09:21:25;18.70;31.20
85378;DHT22;75782;48.632;10.230;2024-01-27T09:23:52;18.90;30.70
85378;DHT22;75782;48.632;10.230;2024-01-27T09:26:19;18.90;30.70
85378;DHT22;75782;48.632;10.230;2024-01-27T09:28:45;18.90;30.20
85378;DHT22;75782;48.632;10.230;2024-01-27T09:31:12;18.80;30.20
85378;DHT22;75782;48.632;10.230;2024-01-27T09:33:38;18.90;30.70
85378;DHT22;75782;48.632;10.230;2024-01-27T09:36:05;18.80;30.00
85378;DHT22;75782;48.632;10.230;2024-01-27T09:38:32;18.60;30.90
85378;DHT22;75782;48.632;10.230;2024-01-27T09:40:59;18.30;30.90
85378;DHT22;75782;48.632;10.230;2024-01-27T09:43:26;18.30;30.90
85378;DHT22;75782;48.632;10.230;2024-01-27T09:45:52;18.20;31.70
85378;DHT22;75782;48.632;10.230;2024-01-27T09:48:19;18.20;30.70
85378;DHT22;75782;48.632;10.230;2024-01-27T09:50:46;17.90;31.10
85378;DHT22;75782;48.632;10.230;2024-01-27T09:53:13;17.90;31.10
85378;DHT22;75782;48.632;10.230;2024-01-27T09:55:40;17.70;31.80
85378;DHT22;75782;48.632;10.230;2024-01-27T09:58:06;17.60;32.20
85378;DHT22;75782;48.632;10.230;2024-01-27T10:00:33;17.60;30.70
85378;DHT22;75782;48.632;10.230;2024-01-27T10:02:59;17.50;31.80
85378;DHT22;75782;48.632;10.230;2024-01-27T10:05:27;17.70;31.40
85378;DHT22;75782;48.632;10.230;2024-01-27T10:07:54;17.70;31.40
85378;DHT22;75782;48.632;10.230;2024-01-27T10:10:21;17.60;31.30
85378;DHT22;75782;48.632;10.230;2024-01-27T10:12:47;17.50;31.90
85378;DHT22;75782;48.632;10.230;2024-01-27T10:15:18;17.50;31.60
85378;DHT22;75782;48.632;10.230;2024-01-27T10:17:45;17.90;32.50
85378;DHT22;75782;48.632;10.230;2024-01-27T10:20:12;17.90;32.50
85378;DHT22;75782;48.632;10.230;2024-01-27T10:22:42;17.60;31.40
85378;DHT22;75782;48.632;10.230;2024-01-27T10:25:08;17.60;31.30
85378;DHT22;75782;48.632;10.230;2024-01-27T10:27:35;17.60;31.20
85378;DHT22;75782;48.632;10.230;2024-01-27T10:30:02;17.90;31.50
85378;DHT22;75782;48.632;10.230;2024-01-27T10:32:29;19.40;30.40
85378;DHT22;75782;48.632;10.230;2024-01-27T10:35:02;19.40;30.40
85378;DHT22;75782;48.632;10.230;2024-01-27T10:37:28;20.00;29.40
85378;DHT22;75782;48.632;10.230;2024-01-27T10:40:03;19.80;29.20
85378;DHT22;75782;48.632;10.230;2024-01-27T10:42:29;20.10;29.30
85378;DHT22;75782;48.632;10.230;2024-01-27T10:44:58;20.00;29.70
85378;DHT22;75782;48.632;10.230;2024-01-27T10:47:25;20.00;29.20
85378;DHT22;75782;48.632;10.230;2024-01-27T10:49:51;20.50;29.40
85378;DHT22;75782;48.632;10.230;2024-01-27T10:52:17;21.30;28.70
85378;DHT22;75782;48.632;10.230;2024-01-27T10:54:44;21.50;28.20
85378;DHT22;75782;48.632;10.230;2024-01-27T10:57:11;21.10;27.60
85378;DHT22;75782;48.632;10.230;2024-01-27T10:59:38;21.10;27.50
85378;DHT22;75782;48.632;10.230;2024-01-27T11:02:04;21.00;27.90
85378;DHT22;75782;48.632;10.230;2024-01-27T11:04:31;21.00;27.90
85378;DHT22;75782;48.632;10.230;2024-01-27T11:06:58;20.80;28.60
85378;DHT22;75782;48.632;10.230;2024-01-27T11:09:24;20.10;27.80
85378;DHT22;75782;48.632;10.230;2024-01-27T11:11:51;19.30;28.80
85378;DHT22;75782;48.632;10.230;2024-01-27T11:14:17;18.80;29.30
85378;DHT22;75782;48.632;10.230;2024-01-27T11:16:44;18.40;30.80
85378;DHT22;75782;48.632;10.230;2024-01-27T11:19:12;17.80;30.70
85378;DHT22;75782;48.632;10.230;2024-01-27T11:21:38;17.70;30.50
85378;DHT22;75782;48.632;10.230;2024-01-27T11:24:21;17.30;31.60
85378;DHT22;75782;48.632;10.230;2024-01-27T11:26:47;17.30;31.60
85378;DHT22;75782;48.632;10.230;2024-01-27T11:29:13;17.10;32.20
85378;DHT22;75782;48.632;10.230;2024-01-27T11:31:49;16.70;32.30
85378;DHT22;75782;48.632;10.230;2024-01-27T11:34:17;16.70;32.30
85378;DHT22;75782;48.632;10.230;2024-01-27T11:36:42;16.60;32.60
85378;DHT22;75782;48.632;10.230;2024-01-27T11:39:27;16.40;32.30
85378;DHT22;75782;48.632;10.230;2024-01-27T11:41:53;16.40;32.90
85378;DHT22;75782;48.632;10.230;2024-01-27T11:44:20;16.20;31.90
85378;DHT22;75782;48.632;10.230;2024-01-27T11:46:46;16.10;33.10
85378;DHT22;75782;48.632;10.230;2024-01-27T11:49:15;16.10;33.20
85378;DHT22;75782;48.632;10.230;2024-01-27T11:51:41;16.00;32.20
85378;DHT22;75782;48.632;10.230;2024-01-27T11:54:08;15.90;32.20
85378;DHT22;75782;48.632;10.230;2024-01-27T11:56:34;15.80;34.10
85378;DHT22;75782;48.632;10.230;2024-01-27T11:59:01;15.70;33.80
85378;DHT22;75782;48.632;10.230;2024-01-27T12:01:28;15.70;33.20
85378;DHT22;75782;48.632;10.230;2024-01-27T12:03:54;15.60;33.10
85378;DHT22;75782;48.632;10.230;2024-01-27T12:06:21;15.60;32.60
85378;DHT22;75782;48.632;10.230;2024-01-27T12:08:48;15.50;33.00
85378;DHT22;75782;48.632;10.230;2024-01-27T12:11:14;15.40;33.50
85378;DHT22;75782;48.632;10.230;2024-01-27T12:13:42;15.30;34.00
85378;DHT22;75782;48.632;10.230;2024-01-27T12:16:09;15.30;33.30
85378;DHT22;75782;48.632;10.230;2024-01-27T12:18:36;15.20;33.20
85378;DHT22;75782;48.632;10.230;2024-01-27T12:21:03;15.20;33.10
85378;DHT22;75782;48.632;10.230;2024-01-27T12:23:30;15.10;33.50
85378;DHT22;75782;48.632;10.230;2024-01-27T12:25:56;15.00;33.80
85378;DHT22;75782;48.632;10.230;2024-01-27T12:28:23;14.90;34.80
85378;DHT22;75782;48.632;10.230;2024-01-27T12:30:51;14.90;33.70
85378;DHT22;75782;48.632;10.230;2024-01-27T12:33:17;14.80;33.90
85378;DHT22;75782;48.632;10.230;2024-01-27T12:35:44;14.70;34.40
85378;DHT22;75782;48.632;10.230;2024-01-27T12:38:10;14.60;34.70
85378;DHT22;75782;48.632;10.230;2024-01-27T12:40:37;14.60;34.50
85378;DHT22;75782;48.632;10.230;2024-01-27T12:43:03;14.50;34.30
85378;DHT22;75782;48.632;10.230;2024-01-27T12:45:31;14.40;33.70
85378;DHT22;75782;48.632;10.230;2024-01-27T12:47:57;14.30;34.00
85378;DHT22;75782;48.632;10.230;2024-01-27T12:50:24;14.00;35.90
85378;DHT22;75782;48.632;10.230;2024-01-27T12:52:51;13.90;35.90
85378;DHT22;75782;48.632;10.230;2024-01-27T12:55:17;13.80;37.30
85378;DHT22;75782;48.632;10.230;2024-01-27T12:57:45;13.70;38.10
85378;DHT22;75782;48.632;10.230;2024-01-27T13:00:12;13.40;38.50
85378;DHT22;75782;48.632;10.230;2024-01-27T13:02:39;13.40;38.50
85378;DHT22;75782;48.632;10.230;2024-01-27T13:05:06;13.30;38.50
85378;DHT22;75782;48.632;10.230;2024-01-27T13:07:32;13.20;38.80
85378;DHT22;75782;48.632;10.230;2024-01-27T13:09:59;13.00;38.90
85378;DHT22;75782;48.632;10.230;2024-01-27T13:12:25;12.80;39.70
85378;DHT22;75782;48.632;10.230;2024-01-27T13:14:52;12.70;39.90
85378;DHT22;75782;48.632;10.230;2024-01-27T13:17:19;12.70;40.70
85378;DHT22;75782;48.632;10.230;2024-01-27T13:19:45;12.60;39.60
85378;DHT22;75782;48.632;10.230;2024-01-27T13:22:12;12.40;40.10
85378;DHT22;75782;48.632;10.230;2024-01-27T13:24:38;12.40;39.80
85378;DHT22;75782;48.632;10.230;2024-01-27T13:27:05;12.30;39.90
85378;DHT22;75782;48.632;10.230;2024-01-27T13:29:32;12.20;40.40
85378;DHT22;75782;48.632;10.230;2024-01-27T13:31:58;12.10;41.10
85378;DHT22;75782;48.632;10.230;2024-01-27T13:34:25;12.10;40.60
85378;DHT22;75782;48.632;10.230;2024-01-27T13:36:51;11.90;41.00
85378;DHT22;75782;48.632;10.230;2024-01-27T13:39:18;11.80;41.40
85378;DHT22;75782;48.632;10.230;2024-01-27T13:41:45;11.70;41.00
85378;DHT22;75782;48.632;10.230;2024-01-27T13:44:11;11.60;40.40
85378;DHT22;75782;48.632;10.230;2024-01-27T13:46:38;11.50;41.60
85378;DHT22;75782;48.632;10.230;2024-01-27T13:49:06;11.30;41.90
85378;DHT22;75782;48.632;10.230;2024-01-27T13:51:33;11.30;41.80
85378;DHT22;75782;48.632;10.230;2024-01-27T13:54:00;11.00;42.60
85378;DHT22;75782;48.632;10.230;2024-01-27T13:56:27;11.00;42.60
85378;DHT22;75782;48.632;10.230;2024-01-27T13:58:54;10.80;42.60
85378;DHT22;75782;48.632;10.230;2024-01-27T14:01:21;10.80;42.60
85378;DHT22;75782;48.632;10.230;2024-01-27T14:03:47;10.80;43.70
85378;DHT22;75782;48.632;10.230;2024-01-27T14:06:14;10.70;43.90
85378;DHT22;75782;48.632;10.230;2024-01-27T14:08:40;10.50;44.00
85378;DHT22;75782;48.632;10.230;2024-01-27T14:11:07;10.40;44.50
85378;DHT22;75782;48.632;10.230;2024-01-27T14:13:34;10.20;44.90
85378;DHT22;75782;48.632;10.230;2024-01-27T14:16:01;10.20;44.90
85378;DHT22;75782;48.632;10.230;2024-01-27T14:18:28;10.10;45.40
85378;DHT22;75782;48.632;10.230;2024-01-27T14:20:54;10.00;45.40
85378;DHT22;75782;48.632;10.230;2024-01-27T14:23:21;9.90;46.30
85378;DHT22;75782;48.632;10.230;2024-01-27T14:25:49;9.70;45.50
85378;DHT22;75782;48.632;10.230;2024-01-27T14:28:15;9.70;45.50
85378;DHT22;75782;48.632;10.230;2024-01-27T14:30:42;9.60;45.20
85378;DHT22;75782;48.632;10.230;2024-01-27T14:33:09;9.50;45.30
85378;DHT22;75782;48.632;10.230;2024-01-27T14:35:35;9.50;46.10
85378;DHT22;75782;48.632;10.230;2024-01-27T14:38:02;9.40;46.10
85378;DHT22;75782;48.632;10.230;2024-01-27T14:40:29;9.30;46.40
85378;DHT22;75782;48.632;10.230;2024-01-27T14:42:56;9.30;46.90
85378;DHT22;75782;48.632;10.230;2024-01-27T14:45:24;9.20;47.60
85378;DHT22;75782;48.632;10.230;2024-01-27T14:47:50;9.20;47.30
85378;DHT22;75782;48.632;10.230;2024-01-27T14:50:17;9.10;47.60
85378;DHT22;75782;48.632;10.230;2024-01-27T14:52:44;9.10;47.60
85378;DHT22;75782;48.632;10.230;2024-01-27T14:55:10;9.00;47.70
85378;DHT22;75782;48.632;10.230;2024-01-27T14:57:38;8.80;47.90
85378;DHT22;75782;48.632;10.230;2024-01-27T15:00:05;8.80;47.90
85378;DHT22;75782;48.632;10.230;2024-01-27T15:02:32;8.80;48.00
85378;DHT22;75782;48.632;10.230;2024-01-27T15:04:59;8.60;47.90
85378;DHT22;75782;48.632;10.230;2024-01-27T15:07:26;8.50;47.70
85378;DHT22;75782;48.632;10.230;2024-01-27T15:09:53;8.50;47.60
85378;DHT22;75782;48.632;10.230;2024-01-27T15:12:20;8.40;47.60
85378;DHT22;75782;48.632;10.230;2024-01-27T15:14:46;8.30;47.50
85378;DHT22;75782;48.632;10.230;2024-01-27T15:17:13;8.20;47.60
85378;DHT22;75782;48.632;10.230;2024-01-27T15:19:39;8.10;47.20
85378;DHT22;75782;48.632;10.230;2024-01-27T15:22:06;8.10;47.00